createdAt,value
2019-04-11T00:07:00.524Z,953.9
2019-04-11T00:17:03.982Z,953.8
2019-04-11T00:27:07.310Z,953.8
2019-04-11T00:37:10.958Z,953.8
2019-04-11T00:47:15.380Z,953.8
2019-04-11T00:57:19.210Z,953.8
2019-04-11T01:07:22.987Z,953.8
2019-04-11T01:17:27.633Z,953.9
2019-04-11T01:27:32.291Z,953.9
2019-04-11T01:37:35.871Z,954
2019-04-11T01:47:39.567Z,954.2
2019-04-11T01:57:44.940Z,954.2
2019-04-11T02:07:49.239Z,954.2
2019-04-11T02:17:52.606Z,954.3
2019-04-11T02:27:56.323Z,954.4
2019-04-11T02:38:00.508Z,954.6
2019-04-11T02:48:13.514Z,954.7
2019-04-11T02:58:20.651Z,954.8
2019-04-11T03:08:34.801Z,954.8
2019-04-11T03:19:51.000Z,954.9
2019-04-11T03:30:17.085Z,954.9
2019-04-11T03:41:37.173Z,954.9
2019-04-11T03:51:48.298Z,955
2019-04-11T04:01:51.687Z,955
2019-04-11T04:11:59.793Z,955.1
2019-04-11T04:22:07.861Z,955.2
2019-04-11T04:32:14.808Z,955.3
2019-04-11T04:42:48.654Z,955.3
2019-04-11T04:53:00.845Z,955.4
2019-04-11T05:03:10.512Z,955.5
2019-04-11T05:13:17.473Z,955.7
2019-04-11T05:23:21.642Z,955.7
2019-04-11T05:33:25.619Z,955.6
2019-04-11T05:43:41.867Z,955.6
2019-04-11T05:53:55.721Z,955.6
2019-04-11T06:04:02.137Z,955.7
2019-04-11T06:14:07.641Z,955.8
2019-04-11T06:24:12.268Z,955.8
2019-04-11T06:34:15.822Z,955.9
2019-04-11T06:44:19.139Z,955.8
2019-04-11T06:54:23.560Z,955.9
2019-04-11T07:04:27.655Z,955.9
2019-04-11T07:14:31.493Z,956
2019-04-11T07:24:34.849Z,959.1
2019-04-11T07:41:15.293Z,960.8
2019-04-11T08:52:46.747Z,962.4
2019-04-11T09:02:51.473Z,962
2019-04-11T09:12:55.354Z,961.9
2019-04-11T09:22:59.803Z,961.7
2019-04-11T09:33:03.139Z,961.5
2019-04-11T11:45:40.137Z,961.8
2019-04-11T11:55:43.474Z,961.7
2019-04-11T12:05:54.199Z,961.6
2019-04-11T12:15:57.631Z,961.4
2019-04-11T12:26:01.407Z,961.3
2019-04-11T12:36:05.809Z,961.1
2019-04-11T12:46:09.112Z,961
2019-04-11T12:56:12.441Z,960.8
2019-04-11T13:06:15.769Z,960.6
2019-04-11T13:16:19.102Z,960.6
2019-04-11T13:26:22.447Z,960.5
2019-04-11T13:36:25.779Z,960.4
2019-04-11T13:46:29.110Z,960.3
2019-04-11T13:56:32.516Z,960.2
2019-04-11T14:06:35.855Z,960.1
2019-04-11T14:16:42.334Z,960.1
2019-04-11T14:26:45.657Z,959.9
